Mc Girk, Missouri
Current Conditions -  °F | °C
As of 2:53 PM on Thursday 23 Oct 2014 (Local Time) from KJEF Reporting Station
Broken Clouds Broken Clouds  
Wind Chill: 61°   Ceiling: 6000
Heat Index: 61°   Visibility: 10mi
Dew Point: 48°   Wind: 9mph
Humidity: 62%   Direction: 200°SSW
Pressure: 30.1"   Gusts: NA
Location:  38.6111°N, 92.4808°W
Report Text: KJEF 231953Z 20008KT 10SM BKN060 BKN070 BKN110 16/09 A3010 RMK AO2 SLP182 T01610089
Loading
Personal Weather Stations






























Interactive Weather Map
Tropical Storm Tracking
New forecast layout! Learn more

10-Day Weather Forecast

Advertisements
Track Severe Weather on mobile